createdAt,value
2022-10-19T00:04:02.506Z,17.30
2022-10-19T00:10:06.695Z,15.50
2022-10-19T00:16:11.409Z,19.42
2022-10-19T00:22:14.135Z,18.70
2022-10-19T00:28:15.748Z,15.38
2022-10-19T00:34:17.492Z,15.87
2022-10-19T00:40:19.007Z,16.05
2022-10-19T00:46:20.810Z,18.23
2022-10-19T00:52:23.528Z,16.87
2022-10-19T00:58:24.979Z,14.43
2022-10-19T01:04:26.960Z,16.13
2022-10-19T01:10:38.055Z,16.88
2022-10-19T01:16:47.871Z,18.80
2022-10-19T01:23:17.077Z,18.50
2022-10-19T01:29:40.691Z,17.23
2022-10-19T01:35:49.807Z,17.07
2022-10-19T01:42:07.137Z,18.58
2022-10-19T01:48:21.774Z,14.63
2022-10-19T01:54:24.043Z,15.30
2022-10-19T02:00:26.156Z,13.30
2022-10-19T02:06:27.775Z,17.60
2022-10-19T02:12:30.002Z,16.85
2022-10-19T02:18:34.265Z,16.00
2022-10-19T02:24:35.784Z,20.97
2022-10-19T02:30:37.564Z,15.07
2022-10-19T02:36:39.072Z,19.33
2022-10-19T02:42:47.941Z,13.68
2022-10-19T02:48:50.662Z,15.57
2022-10-19T02:54:52.091Z,12.67
2022-10-19T03:00:53.567Z,13.45
2022-10-19T03:06:55.046Z,17.13
2022-10-19T03:19:48.069Z,15.00
2022-10-19T03:25:49.526Z,14.93
2022-10-19T03:31:51.490Z,12.73
2022-10-19T03:37:52.919Z,12.07
2022-10-19T03:43:54.693Z,17.58
2022-10-19T03:49:56.179Z,11.25
2022-10-19T03:56:01.897Z,15.80
2022-10-19T04:02:03.754Z,15.57
2022-10-19T04:08:05.410Z,17.27
2022-10-19T04:14:07.102Z,16.73
2022-10-19T04:20:08.896Z,19.33
2022-10-19T04:26:10.321Z,14.50
2022-10-19T04:32:11.740Z,14.48
2022-10-19T04:38:13.189Z,18.47
2022-10-19T04:44:15.433Z,14.60
2022-10-19T04:50:17.088Z,15.80
2022-10-19T04:56:22.983Z,15.33
2022-10-19T05:02:24.421Z,14.88
2022-10-19T05:08:25.883Z,11.10
2022-10-19T05:20:29.758Z,12.40
2022-10-19T05:26:31.279Z,12.13
2022-10-19T05:32:32.733Z,10.93
2022-10-19T05:38:34.182Z,12.23
2022-10-19T05:44:35.962Z,13.40
2022-10-19T05:50:37.471Z,15.15
2022-10-19T05:56:39.523Z,11.47
2022-10-19T06:02:41.017Z,15.48
2022-10-19T06:08:42.467Z,13.03
2022-10-19T06:20:51.455Z,14.32
2022-10-19T06:26:52.908Z,11.47
2022-10-19T06:32:54.474Z,14.82
2022-10-19T06:38:56.676Z,11.47
2022-10-19T06:44:58.124Z,11.60
2022-10-19T06:51:06.162Z,14.13
2022-10-19T06:57:08.077Z,14.20
2022-10-19T07:03:09.575Z,12.85
2022-10-19T07:09:11.068Z,12.03
2022-10-19T07:15:12.584Z,14.95
2022-10-19T07:21:14.863Z,14.15
2022-10-19T07:27:16.366Z,16.03
2022-10-19T07:39:19.265Z,15.97
2022-10-19T07:45:21.527Z,13.30
2022-10-19T07:51:23.163Z,13.43
2022-10-19T07:57:24.663Z,9.73
2022-10-19T08:09:53.142Z,9.03
2022-10-19T08:15:55.271Z,11.52
2022-10-19T08:21:56.743Z,13.73
2022-10-19T08:27:58.266Z,11.50
2022-10-19T08:33:59.918Z,13.77
2022-10-19T08:40:01.432Z,10.90
2022-10-19T08:46:09.750Z,10.00
2022-10-19T08:52:13.782Z,9.02
2022-10-19T08:58:18.230Z,12.07
2022-10-19T09:04:19.679Z,9.55
2022-10-19T09:10:29.807Z,10.17
2022-10-19T09:16:31.383Z,7.95
2022-10-19T09:22:35.624Z,6.85
2022-10-19T09:28:56.021Z,8.27
2022-10-19T09:35:01.038Z,10.02
2022-10-19T09:41:11.896Z,5.93
2022-10-19T09:47:19.196Z,7.50
2022-10-19T09:53:21.440Z,7.38
2022-10-19T09:59:24.544Z,6.23
2022-10-19T10:05:33.834Z,6.53
2022-10-19T10:11:39.480Z,4.70
2022-10-19T10:17:40.993Z,6.93
2022-10-19T10:23:42.618Z,5.97
2022-10-19T10:29:53.773Z,8.13
2022-10-19T10:35:57.727Z,9.23
2022-10-19T10:42:06.548Z,5.77
2022-10-19T10:48:17.439Z,5.65
2022-10-19T10:54:20.351Z,7.22
2022-10-19T11:00:24.030Z,5.73
2022-10-19T11:06:25.813Z,4.00
2022-10-19T11:12:38.435Z,4.57
2022-10-19T11:18:44.604Z,4.65
2022-10-19T11:24:59.197Z,7.13
2022-10-19T11:31:18.146Z,4.87
2022-10-19T11:37:26.112Z,4.03
2022-10-19T11:43:42.887Z,3.57
2022-10-19T11:49:44.339Z,5.50
2022-10-19T11:55:48.856Z,3.83
2022-10-19T12:02:14.346Z,5.90
2022-10-19T12:14:27.864Z,4.20
2022-10-19T12:20:32.472Z,3.42
2022-10-19T12:26:35.440Z,6.25
2022-10-19T12:32:50.798Z,6.37
2022-10-19T12:39:00.049Z,4.40
2022-10-19T12:45:02.006Z,3.10
2022-10-19T12:51:08.025Z,2.78
2022-10-19T12:57:25.953Z,4.20
2022-10-19T13:03:30.308Z,3.27
2022-10-19T13:09:33.993Z,3.85
2022-10-19T13:15:35.467Z,6.77
2022-10-19T13:21:47.197Z,4.80
2022-10-19T13:27:49.612Z,2.80
2022-10-19T13:33:51.582Z,5.50
2022-10-19T13:39:53.800Z,6.32
2022-10-19T13:45:55.370Z,6.80
2022-10-19T13:52:18.732Z,4.40
2022-10-19T13:58:28.267Z,3.13
2022-10-19T14:04:51.434Z,3.30
2022-10-19T14:11:01.538Z,4.72
2022-10-19T14:17:04.479Z,3.80
2022-10-19T14:23:23.862Z,4.88
2022-10-19T14:29:25.704Z,4.07
2022-10-19T14:35:28.425Z,4.13
2022-10-19T14:47:50.698Z,6.20
2022-10-19T14:54:15.984Z,4.47
2022-10-19T15:00:22.045Z,4.15
2022-10-19T15:06:25.518Z,4.77
2022-10-19T15:12:29.525Z,4.15
2022-10-19T15:18:48.707Z,4.07
2022-10-19T15:24:58.858Z,3.20
2022-10-19T15:31:01.600Z,3.58
2022-10-19T15:37:03.445Z,6.27
2022-10-19T15:43:23.821Z,7.45
2022-10-19T15:49:40.831Z,4.67
2022-10-19T15:55:42.399Z,5.43
2022-10-19T16:01:44.544Z,3.45
2022-10-19T16:07:46.116Z,7.67
2022-10-19T16:13:47.635Z,5.78
2022-10-19T16:19:49.096Z,3.97
2022-10-19T16:25:50.667Z,5.88
2022-10-19T16:31:52.124Z,4.00
2022-10-19T16:37:53.704Z,6.03
2022-10-19T16:43:55.811Z,5.30
2022-10-19T16:50:01.138Z,5.50
2022-10-19T16:56:09.368Z,3.90
2022-10-19T17:02:13.010Z,3.42
2022-10-19T17:08:14.464Z,3.17
2022-10-19T17:14:15.942Z,5.80
2022-10-19T17:20:17.945Z,5.23
2022-10-19T17:26:24.316Z,3.55
2022-10-19T17:32:25.775Z,3.30
2022-10-19T17:38:27.362Z,5.23
2022-10-19T17:44:30.452Z,4.18
2022-10-19T17:50:31.998Z,5.10
2022-10-19T17:56:33.905Z,6.63
2022-10-19T18:02:35.839Z,6.20
2022-10-19T18:08:38.732Z,8.17
2022-10-19T18:14:40.257Z,6.50
2022-10-19T18:20:41.719Z,6.93
2022-10-19T18:26:43.190Z,7.85
2022-10-19T18:32:44.671Z,8.23
2022-10-19T18:38:49.847Z,7.70
2022-10-19T18:44:51.304Z,6.38
2022-10-19T18:50:52.831Z,5.47
2022-10-19T18:56:55.085Z,6.50
2022-10-19T19:02:56.688Z,10.98
2022-10-19T19:08:59.756Z,9.80
2022-10-19T19:15:01.414Z,13.30
2022-10-19T19:21:03.341Z,14.17
2022-10-19T19:27:04.849Z,11.38
2022-10-19T19:33:06.332Z,14.13
2022-10-19T19:39:07.808Z,11.43
2022-10-19T19:45:09.492Z,11.57
2022-10-19T19:51:12.923Z,10.80
2022-10-19T19:57:14.430Z,12.10
2022-10-19T20:03:16.309Z,14.65
2022-10-19T20:09:17.855Z,14.17
2022-10-19T20:15:19.609Z,13.88
2022-10-19T20:21:24.806Z,14.53
2022-10-19T20:27:26.349Z,14.43
2022-10-19T20:33:28.758Z,11.57
2022-10-19T20:39:30.205Z,14.50
2022-10-19T20:45:31.702Z,16.45
2022-10-19T20:51:36.398Z,13.20
2022-10-19T20:57:37.853Z,14.27
2022-10-19T21:03:39.953Z,12.02
2022-10-19T21:09:41.408Z,16.60
2022-10-19T21:15:42.999Z,13.38
2022-10-19T21:21:45.897Z,12.77
2022-10-19T21:27:47.376Z,12.27
2022-10-19T21:33:48.957Z,15.52
2022-10-19T21:39:50.408Z,12.70
2022-10-19T21:45:51.883Z,12.18
2022-10-19T21:51:54.004Z,10.73
2022-10-19T21:57:55.473Z,12.80
2022-10-19T22:03:57.543Z,8.63
2022-10-19T22:09:59.028Z,12.47
2022-10-19T22:16:04.818Z,9.75
2022-10-19T22:22:08.592Z,10.63
2022-10-19T22:28:10.017Z,10.57
2022-10-19T22:34:13.480Z,10.30
2022-10-19T22:40:14.946Z,7.90
2022-10-19T22:46:16.438Z,8.02
2022-10-19T22:52:17.915Z,9.40
2022-10-19T22:58:19.917Z,10.30
2022-10-19T23:04:21.469Z,9.32
2022-10-19T23:10:22.942Z,9.13
2022-10-19T23:16:24.413Z,7.88
2022-10-19T23:22:25.875Z,8.63
2022-10-19T23:28:27.873Z,7.75
2022-10-19T23:34:29.411Z,8.82
2022-10-19T23:40:31.119Z,10.37
2022-10-19T23:46:32.585Z,8.75
2022-10-19T23:52:34.015Z,7.63
2022-10-19T23:58:35.478Z,8.65
